createdAt,value
2023-07-20T00:00:41.507Z,59.38
2023-07-20T00:03:30.119Z,59.38
2023-07-20T00:05:58.780Z,59.25
2023-07-20T00:08:27.327Z,59.44
2023-07-20T00:10:55.864Z,59.34
2023-07-20T00:13:24.397Z,59.21
2023-07-20T00:15:53.728Z,59.25
2023-07-20T00:18:22.650Z,59.64
2023-07-20T00:20:52.278Z,59.61
2023-07-20T00:23:24.279Z,59.37
2023-07-20T00:25:52.691Z,59.64
2023-07-20T00:28:21.890Z,59.86
2023-07-20T00:30:50.257Z,60.01
2023-07-20T00:33:19.579Z,59.96
2023-07-20T00:35:47.993Z,59.69
2023-07-20T00:38:16.287Z,60.03
2023-07-20T00:40:44.496Z,60.16
2023-07-20T00:43:13.244Z,60.40
2023-07-20T00:45:41.525Z,60.33
2023-07-20T00:48:10.285Z,60.16
2023-07-20T00:50:41.129Z,60.23
2023-07-20T00:53:10.304Z,60.55
2023-07-20T00:55:38.962Z,60.61
2023-07-20T00:58:08.472Z,60.37
2023-07-20T01:00:36.780Z,60.34
2023-07-20T01:03:05.279Z,60.30
2023-07-20T01:05:43.652Z,60.62
2023-07-20T01:08:22.451Z,60.68
2023-07-20T01:11:04.540Z,60.66
2023-07-20T01:13:33.754Z,60.68
2023-07-20T01:16:03.299Z,60.67
2023-07-20T01:18:34.525Z,60.84
2023-07-20T01:21:09.077Z,60.91
2023-07-20T01:24:08.477Z,61.08
2023-07-20T01:27:05.318Z,61.15
2023-07-20T01:30:01.527Z,62.04
2023-07-20T01:32:32.494Z,62.63
2023-07-20T01:35:03.424Z,62.57
2023-07-20T01:37:34.197Z,62.53
2023-07-20T01:40:02.938Z,62.51
2023-07-20T01:42:31.820Z,62.28
2023-07-20T01:45:00.205Z,62.25
2023-07-20T01:47:28.501Z,61.98
2023-07-20T01:49:56.603Z,61.94
2023-07-20T01:52:24.903Z,62.14
2023-07-20T01:54:53.186Z,62.07
2023-07-20T01:57:21.869Z,62.00
2023-07-20T01:59:50.243Z,61.82
2023-07-20T02:02:22.025Z,61.76
2023-07-20T02:04:50.701Z,61.78
2023-07-20T02:07:19.476Z,61.46
2023-07-20T02:09:47.807Z,61.09
2023-07-20T02:12:16.163Z,60.89
2023-07-20T02:14:44.668Z,60.91
2023-07-20T02:17:13.212Z,60.93
2023-07-20T02:19:42.710Z,60.86
2023-07-20T02:22:11.520Z,60.75
2023-07-20T02:24:39.803Z,60.43
2023-07-20T02:27:08.684Z,60.39
2023-07-20T02:29:37.443Z,60.68
2023-07-20T02:32:06.166Z,60.19
2023-07-20T02:34:34.773Z,60.05
2023-07-20T02:37:03.434Z,60.37
2023-07-20T02:39:31.995Z,60.73
2023-07-20T02:42:00.443Z,60.61
2023-07-20T02:44:29.305Z,60.62
2023-07-20T02:46:57.774Z,60.31
2023-07-20T02:49:26.517Z,60.58
2023-07-20T02:51:55.798Z,60.61
2023-07-20T02:54:24.062Z,60.58
2023-07-20T02:56:52.428Z,60.18
2023-07-20T02:59:20.827Z,59.81
2023-07-20T03:01:49.112Z,59.99
2023-07-20T03:04:17.733Z,60.09
2023-07-20T03:06:46.031Z,60.21
2023-07-20T03:09:14.310Z,60.39
2023-07-20T03:11:42.663Z,60.17
2023-07-20T03:14:12.080Z,60.20
2023-07-20T03:16:40.420Z,60.26
2023-07-20T03:19:08.888Z,60.59
2023-07-20T03:21:42.327Z,60.54
2023-07-20T03:24:10.642Z,60.71
2023-07-20T03:26:39.117Z,60.55
2023-07-20T03:29:08.180Z,60.38
2023-07-20T03:31:36.549Z,60.43
2023-07-20T03:34:05.098Z,60.45
2023-07-20T03:36:33.410Z,60.03
2023-07-20T03:39:01.693Z,59.79
2023-07-20T03:41:30.045Z,59.40
2023-07-20T03:43:58.387Z,59.29
2023-07-20T03:46:27.164Z,59.27
2023-07-20T03:48:55.637Z,59.05
2023-07-20T03:51:23.923Z,58.97
2023-07-20T03:53:52.270Z,58.70
2023-07-20T03:56:20.622Z,58.94
2023-07-20T03:58:49.591Z,58.99
2023-07-20T04:01:21.305Z,58.80
2023-07-20T04:03:50.207Z,58.64
2023-07-20T04:06:19.109Z,58.30
2023-07-20T04:08:48.612Z,58.04
2023-07-20T04:11:17.009Z,58.24
2023-07-20T04:13:45.113Z,58.01
2023-07-20T04:16:13.435Z,57.83
2023-07-20T04:18:41.884Z,57.60
2023-07-20T04:21:11.329Z,57.66
2023-07-20T04:23:39.723Z,57.46
2023-07-20T04:26:08.208Z,57.38
2023-07-20T04:28:36.487Z,57.23
2023-07-20T04:31:15.276Z,56.96
2023-07-20T04:33:43.966Z,56.82
2023-07-20T04:36:12.444Z,56.49
2023-07-20T04:38:43.748Z,56.62
2023-07-20T04:41:13.717Z,56.46
2023-07-20T04:43:45.645Z,56.38
2023-07-20T04:46:14.346Z,56.03
2023-07-20T04:48:42.966Z,55.63
2023-07-20T04:51:11.760Z,55.40
2023-07-20T04:53:40.270Z,55.26
2023-07-20T04:56:09.798Z,55.27
2023-07-20T04:58:38.268Z,55.22
2023-07-20T05:01:06.710Z,55.45
2023-07-20T05:03:35.445Z,55.66
2023-07-20T05:06:04.327Z,55.80
2023-07-20T05:08:32.635Z,55.43
2023-07-20T05:11:03.853Z,55.00
2023-07-20T05:13:32.103Z,54.77
2023-07-20T05:16:00.349Z,54.64
2023-07-20T05:18:28.844Z,54.67
2023-07-20T05:20:57.358Z,54.43
2023-07-20T05:23:25.560Z,54.40
2023-07-20T05:25:58.030Z,54.18
2023-07-20T05:28:30.648Z,54.03
2023-07-20T05:31:04.218Z,54.13
2023-07-20T05:33:32.508Z,54.18
2023-07-20T05:36:00.929Z,54.09
2023-07-20T05:38:29.261Z,54.29
2023-07-20T05:41:02.506Z,54.09
2023-07-20T05:43:31.585Z,54.01
2023-07-20T05:46:00.157Z,53.92
2023-07-20T05:48:28.677Z,53.85
2023-07-20T05:50:57.529Z,53.79
2023-07-20T05:53:25.891Z,53.81
2023-07-20T05:55:56.959Z,53.71
2023-07-20T05:58:25.848Z,53.51
2023-07-20T06:00:55.018Z,53.40
2023-07-20T06:03:23.763Z,53.02
2023-07-20T06:05:55.186Z,53.13
2023-07-20T06:08:23.643Z,53.29
2023-07-20T06:10:55.430Z,53.22
2023-07-20T06:13:24.057Z,53.07
2023-07-20T06:15:52.427Z,53.04
2023-07-20T06:18:22.295Z,52.67
2023-07-20T06:20:54.435Z,52.57
2023-07-20T06:23:23.018Z,52.58
2023-07-20T06:25:51.497Z,52.26
2023-07-20T06:28:19.764Z,52.23
2023-07-20T06:30:48.412Z,52.14
2023-07-20T06:33:16.758Z,52.04
2023-07-20T06:35:45.160Z,51.89
2023-07-20T06:40:45.060Z,51.13
2023-07-20T06:45:45.408Z,50.96
2023-07-20T06:48:13.736Z,50.71
2023-07-20T06:50:42.253Z,50.88
2023-07-20T06:53:10.817Z,50.78
2023-07-20T06:55:41.386Z,50.55
2023-07-20T06:58:13.978Z,50.02
2023-07-20T07:00:42.442Z,49.94
2023-07-20T07:03:10.918Z,49.84
2023-07-20T07:05:42.383Z,49.92
2023-07-20T07:08:10.785Z,50.09
2023-07-20T07:10:39.125Z,49.94
2023-07-20T07:13:07.254Z,49.58
2023-07-20T07:15:39.284Z,49.49
2023-07-20T07:18:07.891Z,49.84
2023-07-20T07:20:41.216Z,49.62
2023-07-20T07:23:09.585Z,49.57
2023-07-20T07:25:38.032Z,49.44
2023-07-20T07:28:06.340Z,49.44
2023-07-20T07:30:35.099Z,49.13
2023-07-20T07:33:03.641Z,48.77
2023-07-20T07:35:31.859Z,48.57
2023-07-20T07:38:12.284Z,48.79
2023-07-20T07:40:48.511Z,49.23
2023-07-20T07:43:17.155Z,49.76
2023-07-20T07:45:45.357Z,50.09
2023-07-20T07:48:15.460Z,50.29
2023-07-20T07:50:44.198Z,49.89
2023-07-20T07:53:12.638Z,49.15
2023-07-20T07:55:43.401Z,49.63
2023-07-20T07:58:11.956Z,49.92
2023-07-20T08:00:40.949Z,49.61
2023-07-20T08:03:10.106Z,49.09
2023-07-20T08:05:38.993Z,49.43
2023-07-20T08:08:07.456Z,49.53
2023-07-20T08:10:35.865Z,48.22
2023-07-20T08:13:04.234Z,47.99
2023-07-20T08:15:32.644Z,48.32
2023-07-20T08:18:01.294Z,48.30
2023-07-20T08:20:29.902Z,48.06
2023-07-20T08:22:59.561Z,48.03
2023-07-20T08:25:27.971Z,47.74
2023-07-20T08:27:56.266Z,46.74
2023-07-20T08:30:25.046Z,46.65
2023-07-20T08:32:53.370Z,46.35
2023-07-20T08:35:23.070Z,45.90
2023-07-20T08:37:51.595Z,45.83
2023-07-20T08:40:20.055Z,46.03
2023-07-20T08:42:49.158Z,46.19
2023-07-20T08:45:18.768Z,46.28
2023-07-20T08:47:50.655Z,46.06
2023-07-20T08:50:20.251Z,45.57
2023-07-20T08:52:49.788Z,44.08
2023-07-20T08:55:18.596Z,43.62
2023-07-20T08:57:51.109Z,43.41
2023-07-20T09:00:20.991Z,43.15
2023-07-20T09:02:52.919Z,43.07
2023-07-20T09:05:24.498Z,43.47
2023-07-20T09:07:54.538Z,43.64
2023-07-20T09:10:24.220Z,43.63
2023-07-20T09:12:54.269Z,43.41
2023-07-20T09:15:26.990Z,42.87
2023-07-20T09:17:55.495Z,42.49
2023-07-20T09:20:24.027Z,41.89
2023-07-20T09:22:54.348Z,41.92
2023-07-20T09:25:25.358Z,42.34
2023-07-20T09:27:56.988Z,42.23
2023-07-20T09:33:03.098Z,41.27
2023-07-20T09:35:41.651Z,40.78
2023-07-20T09:50:58.103Z,40.37
2023-07-20T09:53:30.459Z,40.64
2023-07-20T09:56:00.850Z,40.70
2023-07-20T09:58:30.297Z,40.51
2023-07-20T10:01:08.291Z,40.01
2023-07-20T10:03:38.757Z,39.41
2023-07-20T10:06:11.899Z,39.35
2023-07-20T10:11:17.070Z,39.02
2023-07-20T10:13:46.764Z,38.68
2023-07-20T10:16:31.046Z,38.57
2023-07-20T10:19:19.181Z,38.83
2023-07-20T10:21:56.604Z,38.83
2023-07-20T10:24:29.825Z,38.39
2023-07-20T10:26:59.574Z,37.94
2023-07-20T10:29:30.546Z,37.66
2023-07-20T10:31:59.480Z,37.51
2023-07-20T10:34:27.913Z,37.41
2023-07-20T10:36:56.411Z,37.55
2023-07-20T10:39:35.028Z,37.23
2023-07-20T10:42:11.163Z,37.80
2023-07-20T10:44:41.160Z,38.10
2023-07-20T10:47:14.399Z,37.74
2023-07-20T10:50:15.390Z,37.78
2023-07-20T10:52:44.064Z,38.08
2023-07-20T10:55:16.431Z,38.13
2023-07-20T10:57:46.062Z,38.63
2023-07-20T11:00:16.274Z,38.14
2023-07-20T11:02:45.667Z,37.85
2023-07-20T11:05:33.863Z,37.41
2023-07-20T11:08:06.156Z,37.39
2023-07-20T11:10:35.397Z,36.92
2023-07-20T11:13:24.902Z,36.61
2023-07-20T11:15:58.025Z,36.19
2023-07-20T11:18:29.727Z,36.23
2023-07-20T11:20:58.621Z,36.38
2023-07-20T11:23:27.895Z,35.86
2023-07-20T11:25:56.368Z,35.68
2023-07-20T11:28:24.955Z,35.44
2023-07-20T11:30:56.423Z,34.88
2023-07-20T11:33:25.114Z,34.71
2023-07-20T11:35:54.371Z,34.79
2023-07-20T11:38:22.756Z,34.24
2023-07-20T11:40:51.765Z,34.54
2023-07-20T11:43:22.488Z,34.51
2023-07-20T11:45:50.970Z,34.46
2023-07-20T11:48:19.504Z,38.04
2023-07-20T11:50:48.373Z,41.35
2023-07-20T11:53:17.714Z,45.64
2023-07-20T11:55:47.289Z,46.38
2023-07-20T11:58:18.290Z,47.87
2023-07-20T12:00:47.521Z,49.61
2023-07-20T12:03:16.368Z,50.07
2023-07-20T12:06:00.460Z,51.38
2023-07-20T12:08:30.547Z,51.75
2023-07-20T12:10:59.128Z,51.93
2023-07-20T12:14:11.555Z,52.38
2023-07-20T12:16:40.576Z,52.94
2023-07-20T12:19:11.010Z,52.67
2023-07-20T12:21:42.502Z,53.12
2023-07-20T12:24:12.764Z,52.70
2023-07-20T12:26:41.546Z,52.96
2023-07-20T12:29:10.036Z,52.49
2023-07-20T12:31:41.751Z,51.98
2023-07-20T12:34:10.807Z,51.99
2023-07-20T12:36:39.225Z,52.43
2023-07-20T12:39:07.651Z,52.41
2023-07-20T12:41:35.771Z,52.01
2023-07-20T12:44:04.177Z,52.32
2023-07-20T12:46:36.598Z,52.74
2023-07-20T12:49:05.548Z,53.25
2023-07-20T12:51:33.886Z,54.34
2023-07-20T12:54:02.369Z,54.09
2023-07-20T12:59:04.127Z,52.90
2023-07-20T13:01:34.817Z,52.55
2023-07-20T13:06:37.499Z,51.48
2023-07-20T13:09:06.314Z,50.08
2023-07-20T13:11:34.900Z,49.26
2023-07-20T13:14:03.433Z,48.67
2023-07-20T13:16:31.864Z,48.30
2023-07-20T13:19:02.037Z,47.35
2023-07-20T13:21:30.592Z,46.07
2023-07-20T13:23:59.058Z,45.12
2023-07-20T13:26:27.546Z,43.33
2023-07-20T13:28:56.363Z,41.96
2023-07-20T13:31:25.081Z,40.81
2023-07-20T13:33:57.685Z,39.04
2023-07-20T13:36:30.516Z,36.73
2023-07-20T13:39:00.665Z,34.10
2023-07-20T13:41:30.101Z,30.50
2023-07-20T13:44:02.332Z,27.68
2023-07-20T13:49:01.747Z,23.66
2023-07-20T13:51:30.382Z,23.89
2023-07-20T13:53:59.458Z,22.82
2023-07-20T13:56:28.754Z,20.75
2023-07-20T13:58:59.348Z,19.48
2023-07-20T14:01:30.252Z,19.93
2023-07-20T14:03:59.393Z,20.71
2023-07-20T14:06:34.596Z,21.54
2023-07-20T14:09:04.926Z,20.34
2023-07-20T14:14:04.682Z,18.81
2023-07-20T14:16:33.986Z,19.58
2023-07-20T14:19:04.331Z,21.31
2023-07-20T14:21:32.792Z,23.00
2023-07-20T14:24:02.255Z,23.00
2023-07-20T14:26:33.661Z,21.37
2023-07-20T14:29:02.974Z,22.31
2023-07-20T14:31:32.972Z,24.65
2023-07-20T14:34:01.940Z,25.71
2023-07-20T14:36:31.483Z,26.87
2023-07-20T14:39:00.603Z,29.02
2023-07-20T14:41:29.122Z,30.78
2023-07-20T14:43:58.471Z,32.85
2023-07-20T14:46:27.159Z,33.87
2023-07-20T14:48:55.712Z,35.98
2023-07-20T14:51:24.056Z,36.61
2023-07-20T14:53:58.156Z,38.22
2023-07-20T14:56:28.297Z,40.81
2023-07-20T14:58:59.361Z,44.81
2023-07-20T15:01:28.993Z,44.43
2023-07-20T15:03:59.685Z,44.87
2023-07-20T15:06:31.693Z,45.57
2023-07-20T15:09:02.368Z,42.82
2023-07-20T15:11:31.423Z,37.64
2023-07-20T15:13:59.945Z,33.12
2023-07-20T15:16:28.813Z,31.88
2023-07-20T15:18:57.511Z,32.50
2023-07-20T15:21:27.227Z,28.40
2023-07-20T15:23:56.121Z,27.63
2023-07-20T15:26:25.023Z,32.00
2023-07-20T15:28:53.450Z,30.02
2023-07-20T15:32:00.265Z,31.19
2023-07-20T15:34:14.822Z,32.34
2023-07-20T15:36:46.581Z,32.42
2023-07-20T15:39:15.345Z,33.04
2023-07-20T15:41:44.001Z,33.45
2023-07-20T15:44:13.709Z,34.36
2023-07-20T15:46:46.416Z,35.93
2023-07-20T15:49:15.655Z,35.43
2023-07-20T15:51:44.664Z,35.53
2023-07-20T15:54:14.407Z,35.78
2023-07-20T15:56:44.136Z,38.28
2023-07-20T15:59:14.649Z,36.83
2023-07-20T16:01:44.427Z,35.80
2023-07-20T16:04:17.100Z,35.86
2023-07-20T16:06:45.707Z,37.30
2023-07-20T16:09:15.900Z,39.22
2023-07-20T16:11:45.778Z,38.36
2023-07-20T16:14:16.502Z,38.50
2023-07-20T16:16:45.459Z,38.98
2023-07-20T16:19:19.368Z,39.33
2023-07-20T16:21:48.025Z,41.98
2023-07-20T16:24:18.469Z,41.15
2023-07-20T16:26:50.278Z,41.21
2023-07-20T16:29:23.468Z,41.15
2023-07-20T16:34:24.709Z,41.51
2023-07-20T16:39:27.992Z,41.52
2023-07-20T16:44:28.186Z,41.32
2023-07-20T16:46:57.178Z,41.29
2023-07-20T16:49:28.311Z,41.58
2023-07-20T16:52:00.082Z,42.49
2023-07-20T16:54:28.616Z,42.29
2023-07-20T16:56:57.231Z,41.73
2023-07-20T16:59:28.973Z,41.62
2023-07-20T17:01:57.912Z,41.31
2023-07-20T17:04:33.590Z,40.74
2023-07-20T17:07:02.487Z,42.15
2023-07-20T17:09:44.366Z,42.40
2023-07-20T17:12:13.200Z,41.51
2023-07-20T17:14:41.960Z,41.31
2023-07-20T17:17:10.760Z,41.41
2023-07-20T17:19:39.368Z,41.59
2023-07-20T17:22:11.331Z,41.92
2023-07-20T17:27:20.136Z,40.82
2023-07-20T17:29:52.124Z,39.78
2023-07-20T17:32:20.872Z,39.12
2023-07-20T17:34:53.822Z,39.02
2023-07-20T17:37:22.443Z,38.13
2023-07-20T17:44:58.373Z,34.88
2023-07-20T17:47:27.484Z,33.24
2023-07-20T17:50:09.353Z,33.09
2023-07-20T17:52:38.474Z,34.52
2023-07-20T17:55:07.836Z,35.11
2023-07-20T17:57:36.570Z,37.22
2023-07-20T18:02:54.200Z,37.03
2023-07-20T18:05:23.074Z,37.77
2023-07-20T18:07:51.830Z,37.99
2023-07-20T18:10:20.508Z,39.05
2023-07-20T18:12:49.164Z,39.29
2023-07-20T18:15:18.116Z,39.39
2023-07-20T18:17:46.979Z,39.87
2023-07-20T18:20:15.665Z,40.09
2023-07-20T18:22:44.005Z,40.44
2023-07-20T18:25:12.460Z,41.30
2023-07-20T18:27:41.888Z,41.38
2023-07-20T18:30:10.463Z,41.65
2023-07-20T18:32:38.680Z,42.07
2023-07-20T18:35:10.922Z,42.37
2023-07-20T18:37:40.130Z,42.35
2023-07-20T18:40:09.618Z,42.43
2023-07-20T18:42:38.521Z,42.40
2023-07-20T18:45:09.136Z,42.60
2023-07-20T18:47:38.040Z,42.74
2023-07-20T18:50:07.345Z,42.90
2023-07-20T18:52:36.337Z,43.10
2023-07-20T18:55:04.978Z,43.21
2023-07-20T18:57:36.947Z,43.38
2023-07-20T19:00:08.400Z,43.51
2023-07-20T19:02:37.411Z,43.77
2023-07-20T19:05:07.031Z,43.80
2023-07-20T19:07:37.687Z,44.01
2023-07-20T19:10:07.599Z,44.22
2023-07-20T19:12:36.081Z,44.46
2023-07-20T19:15:05.073Z,44.60
2023-07-20T19:17:33.932Z,45.01
2023-07-20T19:20:03.253Z,45.08
2023-07-20T19:22:35.664Z,45.36
2023-07-20T19:25:07.186Z,45.57
2023-07-20T19:27:35.901Z,45.94
2023-07-20T19:30:07.683Z,45.80
2023-07-20T19:32:36.872Z,46.02
2023-07-20T19:35:06.644Z,46.16
2023-07-20T19:37:37.939Z,46.31
2023-07-20T19:40:12.487Z,46.31
2023-07-20T19:42:41.099Z,46.48
2023-07-20T19:45:10.120Z,46.74
2023-07-20T19:47:39.185Z,47.06
2023-07-20T19:50:08.713Z,47.23
2023-07-20T19:52:37.195Z,47.24
2023-07-20T19:55:07.099Z,47.33
2023-07-20T19:57:40.657Z,47.48
2023-07-20T20:00:13.152Z,47.74
2023-07-20T20:05:16.653Z,48.21
2023-07-20T20:07:46.671Z,48.21
2023-07-20T20:10:15.644Z,48.35
2023-07-20T20:12:44.742Z,48.44
2023-07-20T20:15:13.498Z,48.75
2023-07-20T20:17:43.628Z,48.97
2023-07-20T20:20:13.065Z,49.24
2023-07-20T20:22:41.765Z,49.45
2023-07-20T20:25:10.679Z,49.69
2023-07-20T20:27:40.801Z,49.95
2023-07-20T20:30:10.479Z,50.22
2023-07-20T20:32:43.382Z,50.54
2023-07-20T20:35:12.558Z,51.10
2023-07-20T20:37:41.300Z,51.29
2023-07-20T20:40:10.209Z,51.54
2023-07-20T20:42:38.861Z,51.65
2023-07-20T20:45:10.678Z,51.89
2023-07-20T20:47:42.343Z,52.06
2023-07-20T20:50:12.005Z,52.08
2023-07-20T20:52:40.600Z,51.89
2023-07-20T20:55:10.419Z,51.85
2023-07-20T20:57:38.788Z,51.75
2023-07-20T21:00:08.546Z,51.82
2023-07-20T21:02:37.100Z,51.79
2023-07-20T21:05:07.362Z,51.72
2023-07-20T21:07:35.745Z,51.85
2023-07-20T21:10:04.312Z,51.95
2023-07-20T21:12:33.266Z,51.99
2023-07-20T21:15:07.175Z,52.12
2023-07-20T21:17:36.490Z,52.23
2023-07-20T21:20:07.546Z,52.36
2023-07-20T21:22:38.250Z,52.50
2023-07-20T21:25:07.347Z,52.76
2023-07-20T21:27:35.747Z,52.55
2023-07-20T21:30:04.397Z,52.48
2023-07-20T21:32:35.253Z,52.64
2023-07-20T21:35:03.706Z,52.62
2023-07-20T21:37:32.626Z,52.88
2023-07-20T21:40:01.046Z,52.88
2023-07-20T21:42:30.841Z,53.13
2023-07-20T21:44:59.502Z,53.30
2023-07-20T21:47:28.374Z,53.45
2023-07-20T21:49:58.599Z,53.55
2023-07-20T21:52:27.386Z,53.46
2023-07-20T21:54:55.882Z,53.56
2023-07-20T21:57:24.665Z,53.58
2023-07-20T21:59:53.171Z,53.77
2023-07-20T22:02:21.738Z,53.75
2023-07-20T22:04:50.449Z,53.88
2023-07-20T22:07:21.664Z,54.19
2023-07-20T22:09:50.017Z,54.20
2023-07-20T22:12:18.853Z,54.40
2023-07-20T22:14:47.434Z,54.35
2023-07-20T22:17:16.110Z,54.25
2023-07-20T22:19:45.307Z,54.47
2023-07-20T22:22:14.463Z,54.74
2023-07-20T22:24:43.556Z,55.00
2023-07-20T22:27:12.107Z,55.07
2023-07-20T22:29:40.645Z,55.03
2023-07-20T22:32:10.662Z,55.08
2023-07-20T22:34:39.889Z,55.17
2023-07-20T22:37:08.340Z,55.22
2023-07-20T22:39:36.705Z,55.44
2023-07-20T22:42:05.225Z,55.46
2023-07-20T22:44:34.092Z,55.35
2023-07-20T22:47:05.020Z,55.48
2023-07-20T22:49:35.150Z,55.62
2023-07-20T22:52:03.858Z,55.72
2023-07-20T22:54:33.198Z,55.87
2023-07-20T22:57:01.613Z,56.08
2023-07-20T22:59:30.124Z,55.95
2023-07-20T23:01:59.484Z,55.86
2023-07-20T23:04:28.140Z,55.95
2023-07-20T23:06:57.154Z,56.02
2023-07-20T23:09:25.590Z,56.32
2023-07-20T23:11:54.378Z,56.68
2023-07-20T23:14:23.187Z,56.59
2023-07-20T23:16:52.909Z,56.40
2023-07-20T23:19:22.489Z,56.57
2023-07-20T23:21:50.734Z,56.76
2023-07-20T23:24:19.213Z,56.60
2023-07-20T23:26:47.690Z,56.46
2023-07-20T23:29:16.499Z,56.30
2023-07-20T23:31:45.211Z,56.23
2023-07-20T23:34:13.625Z,56.22
2023-07-20T23:36:41.933Z,56.37
2023-07-20T23:39:10.557Z,56.38
2023-07-20T23:41:39.084Z,56.40
2023-07-20T23:44:07.844Z,56.43
2023-07-20T23:46:36.148Z,56.32
2023-07-20T23:49:05.688Z,56.32
2023-07-20T23:51:33.872Z,56.58
2023-07-20T23:54:02.518Z,56.35
2023-07-20T23:56:30.827Z,56.32
2023-07-20T23:58:59.108Z,56.38
